메인 페이지
METAR-TAF:

METAR-TAF

공항 :

양양군, 대한민국

양양국제공항

위도: 38-03-41N, 경도: 128-40-09E, 고도: 73m

현재 날씨관측

예보는 32분 전, 11:00시(UTC)에 발표되었습니다.
4kt
온도 3°C
습도 27%
기압 1019 hPa
시정 10km 이상
1500m 미만 상공 구름 및 적란운 없음

METAR: RKNY 201100Z 28004KT CAVOK 03/M14 Q1019 NOSIG

시각: 20:32 (11:32 UTC)

예보

예보는 6 시간 32분 전, 05:00시(UTC)에 발표되었습니다.
예보 대상 시간: 20일 06시부터 21일 12시까지 (UTC)
동북동5kt
시정 10km 이상
1500m 미만 상공 구름 및 적란운 없음
전환 중
20일 08시부터 20일 09시까지 (UTC)
7kt
전환 중
21일 02시부터 21일 03시까지 (UTC)
동북동6kt
전환 중
21일 08시부터 21일 09시까지 (UTC)
7kt

TAF: RKNY 200500Z 2006/2112 07005KT CAVOK TNM03/2021Z TX03/2105Z BECMG 2008/2009 26007KT BECMG 2102/2103 07006KT BECMG 2108/2109 26007KT

4,000개 이상의 공항 관측 자료 및 예보 (METAR 및 TAF 보고).

지도상에서 검색 가능한 기상관측소가 노란 점과 빨간 점으로 표시되어 있습니다.

기상관측소 명을 보려면 표시 위로 마우스를 이동하세요.

날씨 관측과 예보를 보려면 클릭하세요.

지도 변경 : 확대하려면 엑스 표시가 있는 녹색 버튼, 축소하려면 빼기 표시가 있는 녹색 버튼, 다음 페이지의 지도를 보려면 녹색 화살표를 클릭하세요.


METAR-TAF: